Terminal Aerodrome Forecast
Issued by NWS Cleveland, OH

Home | Current Version | Previous Version | Text Only | Print | Product List | Glossary Off
Versions: 1 2 3 4 5 6 7 8 9 10 11 12 13 14 15 16 17 18 19 20 21 22 23 24 25 26

000
FTUS41 KCLE 250500
TAFMFD
TAF
KMFD 250530Z 2506/2606 26008KT 6SM BR OVC008
     FM251200 25006KT 3SM -SN OVC012
     FM251300 VRB04KT 1 1/2SM -SN BR OVC008
     FM251700 04008KT 1SM -SN BR OVC006
      TEMPO 2519/2523 1/2SM SN VV003=

USA.gov is the U.S. government's official web portal to all federal, state and local government web resources and services.